Wilson, KS (67490)

6:21 AM CDT on September 20, 2014 (GMT -0500)
Wilson | Change Station
CLOSE
Current Station
Personal Weather Station
Location: Wilson, KS
Elevation: 1689 ft
Nearby Weather Stations

Elev 1689 ft 38.82 °N, 98.47 °W | Updated 23 seconds ago

Clear
Clear
69.9 °F
Feels Like 69.9 °F
N
11.8
Wind Variable Wind from SW
Gusts 11.8 mph

Today
High -- | Low -- °F
--% Chance of Precip.
Yesterday
High -- | Low -- °F
Precip. -- in
7:19 AM 7:34 PM
Waning Crescent, 13% visible
Pressure 29.85 in
Visibility 10.0 miles
Clouds Clear
Dew Point 70 °F
Humidity 100%
Rainfall 0.00 in
Snow Depth Not available.
UV 0 out of 12
Pollen 6.10 out of 12
Air Quality Not available.
Flu Activity Not available.
METAR KRSL 201053Z AUTO 20012KT 10SM CLR 20/16 A2990 RMK AO2 SLP108 T02000161

More Conditions Fewer Conditions

Pressure 29.85 in
Visibility 10.0 miles
Clouds Clear
Dew Point 70 °F
Humidity 100%
Rainfall 0.00 in
Snow Depth Not available.
UV 0 out of 12
Pollen 6.10 out of 12
Air Quality Not available.
Flu Activity Not available.
METAR KRSL 201053Z AUTO 20012KT 10SM CLR 20/16 A2990 RMK AO2 SLP108 T02000161

More Conditions Fewer Conditions

10-Day Weather Forecast

Almanac

Astronomy

Sep. 20, 2014 Rise Set
Actual Time 7:19 AM CDT 7:34 PM CDT
Civil Twilight 6:53 AM CDT 8:00 PM CDT
Nautical Twilight 6:22 AM CDT 8:31 PM CDT
Astronomical Twilight 5:50 AM CDT 9:03 PM CDT
Moon 4:01 AM CDT 5:37 PM CDT
Length of Visible Light 13h 07m
Length of Day
12h 14m
Tomorrow will be 2m 30s shorter.
Waning Crescent, 13% of the Moon is Illuminated
Today
Waning Crescent
Sep 24
New
Oct 1
First Quarter
Oct 8
Full
Oct 15
Last Quarter

Today's Extremes

State Highs State Lows

Community

WunderPhotos

Upload Photos

1,754,832 photos uploaded!

WunderBlogs® & News

Nearby

Snow Depth

Station Depth Elevation
No new snow has been reported.

Earthquake Activity

City Distance Mag. Time & Date
Medford, Oklahoma 141 miles 3.2 6:09 AM CDT
2014-09-17
Minimum magnitude displayed is 2.5.

Coastal Water Temperatures

Place Temperature
No Stations Reporting

Nearby Weather Stations